createdAt,value
2023-02-22T00:00:03.955Z,7.94
2023-02-22T00:01:03.938Z,7.98
2023-02-22T00:02:03.977Z,8.01
2023-02-22T00:03:03.750Z,7.98
2023-02-22T00:04:03.812Z,8.03
2023-02-22T00:05:03.789Z,8.01
2023-02-22T00:06:03.748Z,7.94
2023-02-22T00:07:03.727Z,8.03
2023-02-22T00:08:03.688Z,8
2023-02-22T00:09:03.696Z,8
2023-02-22T00:10:03.638Z,7.98
2023-02-22T00:11:03.598Z,8.08
2023-02-22T00:12:03.601Z,7.98
2023-02-22T00:13:03.545Z,7.97
2023-02-22T00:14:03.541Z,7.98
2023-02-22T00:15:03.475Z,7.93
2023-02-22T00:16:03.589Z,8
2023-02-22T00:17:03.397Z,7.98
2023-02-22T00:18:03.397Z,7.95
2023-02-22T00:19:03.342Z,7.93
2023-02-22T00:20:03.313Z,7.95
2023-02-22T00:21:03.420Z,7.91
2023-02-22T00:22:03.044Z,7.91
2023-02-22T00:23:03.208Z,7.88
2023-02-22T00:24:03.174Z,7.9
2023-02-22T00:25:03.172Z,7.9
2023-02-22T00:26:03.139Z,7.91
2023-02-22T00:27:03.116Z,7.9
2023-02-22T00:28:03.072Z,7.98
2023-02-22T00:29:03.043Z,7.91
2023-02-22T00:30:03.006Z,7.98
2023-02-22T00:31:02.957Z,7.94
2023-02-22T00:32:03.318Z,7.97
2023-02-22T00:33:02.904Z,7.95
2023-02-22T00:34:02.859Z,8.01
2023-02-22T00:35:02.822Z,7.98
2023-02-22T00:36:02.804Z,7.98
2023-02-22T00:37:02.764Z,7.93
2023-02-22T00:38:02.745Z,7.94
2023-02-22T00:39:02.706Z,7.95
2023-02-22T00:40:02.663Z,7.94
2023-02-22T00:41:02.679Z,7.94
2023-02-22T00:42:03.019Z,8.01
2023-02-22T00:43:02.584Z,7.97
2023-02-22T00:44:02.572Z,7.95
2023-02-22T00:45:02.530Z,7.91
2023-02-22T00:46:02.686Z,7.88
2023-02-22T00:47:02.238Z,7.87
2023-02-22T00:48:02.422Z,7.77
2023-02-22T00:49:02.388Z,7.79
2023-02-22T00:50:02.359Z,7.87
2023-02-22T00:51:02.334Z,7.76
2023-02-22T00:52:02.300Z,7.72
2023-02-22T00:53:02.256Z,7.76
2023-02-22T00:54:02.292Z,7.6
2023-02-22T00:55:02.201Z,7.7
2023-02-22T00:56:02.169Z,7.61
2023-02-22T00:57:02.173Z,7.6
2023-02-22T00:58:02.178Z,7.61
2023-02-22T00:59:02.080Z,7.61
2023-02-22T01:00:02.056Z,7.63
2023-02-22T01:01:02.147Z,7.77
2023-02-22T01:02:02.468Z,7.61
2023-02-22T01:03:02.199Z,7.75
2023-02-22T01:04:02.053Z,7.72
2023-02-22T01:05:01.952Z,7.72
2023-02-22T01:06:01.857Z,7.76
2023-02-22T01:07:01.818Z,7.75
2023-02-22T01:08:01.802Z,7.73
2023-02-22T01:09:01.769Z,7.66
2023-02-22T01:10:01.729Z,7.75
2023-02-22T01:11:01.828Z,7.73
2023-02-22T01:12:01.652Z,7.66
2023-02-22T01:13:01.684Z,7.75
2023-02-22T01:14:01.603Z,7.63
2023-02-22T01:15:01.593Z,7.72
2023-02-22T01:16:01.595Z,7.58
2023-02-22T01:17:01.586Z,7.61
2023-02-22T01:18:01.471Z,7.63
2023-02-22T01:19:01.458Z,7.58
2023-02-22T01:20:01.415Z,7.56
2023-02-22T01:21:01.368Z,7.5
2023-02-22T01:22:01.367Z,7.48
2023-02-22T01:23:01.389Z,7.53
2023-02-22T01:24:01.280Z,7.54
2023-02-22T01:25:01.243Z,7.53
2023-02-22T01:26:01.217Z,7.45
2023-02-22T01:27:00.951Z,7.51
2023-02-22T01:28:00.954Z,7.47
2023-02-22T01:29:01.139Z,7.53
2023-02-22T01:30:01.094Z,7.47
2023-02-22T01:31:01.866Z,7.51
2023-02-22T01:32:01.218Z,7.53
2023-02-22T01:33:01.038Z,7.45
2023-02-22T01:34:00.960Z,7.56
2023-02-22T01:35:00.949Z,7.51
2023-02-22T01:36:00.911Z,7.51
2023-02-22T01:37:00.875Z,7.57
2023-02-22T01:38:00.866Z,7.48
2023-02-22T01:39:00.799Z,7.48
2023-02-22T01:40:00.770Z,7.53
2023-02-22T01:41:00.735Z,7.45
2023-02-22T01:42:00.710Z,7.56
2023-02-22T01:43:00.700Z,7.51
2023-02-22T01:44:00.628Z,7.53
2023-02-22T01:45:00.628Z,7.57
2023-02-22T01:46:00.857Z,7.56
2023-02-22T01:47:00.563Z,7.51
2023-02-22T01:48:00.540Z,7.51
2023-02-22T01:49:00.519Z,7.56
2023-02-22T01:50:00.441Z,7.45
2023-02-22T01:51:00.430Z,7.45
2023-02-22T01:52:00.378Z,7.51
2023-02-22T01:53:00.359Z,7.48
2023-02-22T01:54:00.337Z,7.5
2023-02-22T01:55:00.310Z,7.48
2023-02-22T01:56:00.257Z,7.47
2023-02-22T01:57:00.234Z,7.47
2023-02-22T01:58:00.200Z,7.42
2023-02-22T01:59:00.166Z,7.42
2023-02-22T02:00:00.225Z,7.47
2023-02-22T02:01:00.133Z,7.35
2023-02-22T02:02:00.059Z,7.39
2023-02-22T02:03:00.033Z,7.31
2023-02-22T02:04:00.190Z,7.33
2023-02-22T02:05:00.142Z,7.35
2023-02-22T02:05:59.934Z,7.29
2023-02-22T02:06:59.900Z,7.25
2023-02-22T02:07:59.871Z,7.31
2023-02-22T02:08:59.841Z,7.29
2023-02-22T02:09:59.814Z,7.25
2023-02-22T02:10:59.773Z,7.29
2023-02-22T02:11:59.750Z,7.32
2023-02-22T02:12:59.716Z,7.32
2023-02-22T02:13:59.681Z,7.31
2023-02-22T02:14:59.652Z,7.31
2023-02-22T02:15:59.619Z,7.25
2023-02-22T02:16:59.852Z,7.25
2023-02-22T02:17:59.548Z,7.21
2023-02-22T02:18:59.531Z,7.07
2023-02-22T02:19:59.555Z,7.23
2023-02-22T02:20:59.483Z,7.11
2023-02-22T02:21:59.431Z,7.11
2023-02-22T02:22:59.401Z,7.14
2023-02-22T02:23:59.371Z,7.06
2023-02-22T02:24:59.325Z,7.03
2023-02-22T02:25:59.298Z,7.11
2023-02-22T02:26:59.278Z,7.14
2023-02-22T02:27:59.236Z,7.13
2023-02-22T02:28:59.204Z,7.15
2023-02-22T02:29:59.169Z,7.11
2023-02-22T02:30:58.904Z,7.14
2023-02-22T02:31:59.470Z,7.21
2023-02-22T02:32:59.102Z,7.2
2023-02-22T02:33:59.047Z,7.21
2023-02-22T02:34:59.006Z,7.2
2023-02-22T02:35:58.997Z,7.14
2023-02-22T02:36:58.984Z,7.18
2023-02-22T02:37:58.942Z,7.1
2023-02-22T02:38:59.050Z,7.21
2023-02-22T02:39:58.970Z,7.17
2023-02-22T02:40:58.820Z,7.24
2023-02-22T02:41:58.795Z,7.21
2023-02-22T02:42:58.759Z,7.1
2023-02-22T02:43:58.717Z,7.1
2023-02-22T02:44:58.696Z,7.11
2023-02-22T02:45:58.666Z,7.06
2023-02-22T02:46:58.773Z,7.06
2023-02-22T02:47:58.610Z,7
2023-02-22T02:48:58.706Z,7.05
2023-02-22T02:49:58.544Z,6.92
2023-02-22T02:50:58.525Z,6.89
2023-02-22T02:51:58.515Z,6.92
2023-02-22T02:52:58.456Z,6.87
2023-02-22T02:53:58.429Z,6.97
2023-02-22T02:54:58.420Z,6.95
2023-02-22T02:55:58.380Z,6.93
2023-02-22T02:56:58.339Z,6.93
2023-02-22T02:57:58.293Z,6.89
2023-02-22T02:58:58.239Z,6.93
2023-02-22T02:59:58.210Z,6.88
2023-02-22T03:00:58.183Z,7
2023-02-22T03:01:58.394Z,7.03
2023-02-22T03:02:58.120Z,6.92
2023-02-22T03:03:58.113Z,7
2023-02-22T03:04:58.083Z,6.96
2023-02-22T03:05:58.022Z,6.96
2023-02-22T03:06:57.990Z,6.88
2023-02-22T03:07:57.987Z,6.96
2023-02-22T03:08:57.944Z,6.89
2023-02-22T03:09:57.894Z,6.95
2023-02-22T03:10:57.637Z,6.88
2023-02-22T03:11:57.853Z,6.88
2023-02-22T03:12:57.791Z,6.92
2023-02-22T03:13:57.858Z,6.81
2023-02-22T03:14:57.748Z,6.75
2023-02-22T03:15:57.720Z,6.75
2023-02-22T03:16:57.681Z,6.75
2023-02-22T03:17:57.646Z,6.66
2023-02-22T03:18:57.622Z,6.63
2023-02-22T03:19:57.586Z,6.66
2023-02-22T03:20:57.664Z,6.63
2023-02-22T03:21:57.519Z,6.59
2023-02-22T03:22:57.469Z,6.63
2023-02-22T03:23:57.471Z,6.51
2023-02-22T03:24:57.432Z,6.57
2023-02-22T03:25:57.380Z,6.51
2023-02-22T03:26:57.351Z,6.54
2023-02-22T03:27:57.313Z,6.52
2023-02-22T03:28:57.297Z,6.49
2023-02-22T03:29:57.268Z,6.48
2023-02-22T03:30:57.348Z,6.49
2023-02-22T03:31:57.301Z,6.46
2023-02-22T03:32:57.155Z,6.39
2023-02-22T03:33:57.126Z,6.31
2023-02-22T03:34:57.101Z,6.33
2023-02-22T03:35:57.100Z,6.35
2023-02-22T03:36:57.073Z,6.27
2023-02-22T03:37:57.000Z,6.33
2023-02-22T03:38:56.974Z,6.28
2023-02-22T03:39:56.963Z,6.24
2023-02-22T03:40:56.924Z,6.24
2023-02-22T03:41:56.885Z,6.16
2023-02-22T03:42:56.829Z,6.26
2023-02-22T03:43:56.828Z,6.22
2023-02-22T03:44:56.771Z,6.17
2023-02-22T03:45:56.746Z,6.22
2023-02-22T03:46:56.751Z,6.22
2023-02-22T03:47:56.674Z,6.11
2023-02-22T03:48:56.654Z,6.05
2023-02-22T03:49:56.626Z,6.04
2023-02-22T03:50:56.578Z,6.08
2023-02-22T03:51:56.600Z,6.02
2023-02-22T03:52:56.528Z,5.94
2023-02-22T03:53:56.472Z,5.94
2023-02-22T03:54:56.545Z,5.97
2023-02-22T03:55:56.490Z,5.87
2023-02-22T03:56:56.405Z,5.9
2023-02-22T03:57:56.350Z,5.87
2023-02-22T03:58:56.368Z,5.8
2023-02-22T03:59:56.280Z,5.89
2023-02-22T04:00:56.247Z,5.86
2023-02-22T04:01:56.218Z,5.84
2023-02-22T04:02:56.374Z,5.72
2023-02-22T04:03:56.155Z,5.76
2023-02-22T04:04:56.302Z,5.75
2023-02-22T04:05:56.073Z,5.8
2023-02-22T04:06:56.041Z,5.79
2023-02-22T04:07:56.014Z,5.75
2023-02-22T04:08:56.016Z,5.75
2023-02-22T04:09:55.949Z,5.64
2023-02-22T04:10:55.926Z,5.71
2023-02-22T04:11:55.905Z,5.69
2023-02-22T04:12:55.868Z,5.65
2023-02-22T04:13:55.845Z,5.69
2023-02-22T04:14:55.841Z,5.69
2023-02-22T04:15:55.941Z,5.57
2023-02-22T04:16:55.714Z,5.66
2023-02-22T04:17:55.689Z,5.69
2023-02-22T04:18:55.660Z,5.64
2023-02-22T04:19:55.617Z,5.62
2023-02-22T04:20:55.595Z,5.59
2023-02-22T04:21:55.549Z,5.57
2023-02-22T04:22:55.516Z,5.51
2023-02-22T04:23:55.485Z,5.51
2023-02-22T04:24:55.483Z,5.44
2023-02-22T04:25:55.449Z,5.51
2023-02-22T04:26:55.398Z,5.53
2023-02-22T04:27:55.381Z,5.39
2023-02-22T04:28:55.353Z,5.43
2023-02-22T04:29:55.305Z,5.43
2023-02-22T04:30:55.386Z,5.33
2023-02-22T04:31:55.375Z,5.33
2023-02-22T04:32:55.200Z,5.28
2023-02-22T04:33:55.162Z,5.29
2023-02-22T04:34:55.124Z,5.3
2023-02-22T04:35:55.115Z,5.3
2023-02-22T04:36:55.063Z,5.29
2023-02-22T04:37:55.029Z,5.28
2023-02-22T04:38:55.016Z,5.26
2023-02-22T04:39:54.950Z,5.26
2023-02-22T04:40:55.003Z,5.07
2023-02-22T04:41:54.885Z,5.17
2023-02-22T04:42:54.864Z,5.23
2023-02-22T04:43:54.855Z,5.23
2023-02-22T04:44:54.832Z,5.11
2023-02-22T04:45:54.757Z,5.18
2023-02-22T04:46:54.732Z,5.11
2023-02-22T04:47:54.710Z,5.15
2023-02-22T04:48:54.658Z,5.15
2023-02-22T04:49:54.622Z,5.08
2023-02-22T04:50:54.628Z,5.11
2023-02-22T04:51:54.554Z,5.17
2023-02-22T04:52:54.524Z,5.17
2023-02-22T04:53:54.504Z,5
2023-02-22T04:54:54.508Z,5.04
2023-02-22T04:55:54.431Z,5.11
2023-02-22T04:56:54.414Z,5.1
2023-02-22T04:57:54.361Z,5.04
2023-02-22T04:58:54.330Z,5.07
2023-02-22T04:59:54.320Z,5
2023-02-22T05:00:54.306Z,4.97
2023-02-22T05:01:54.235Z,4.99
2023-02-22T05:02:54.363Z,4.99
2023-02-22T05:03:54.160Z,4.96
2023-02-22T05:04:54.392Z,4.97
2023-02-22T05:05:54.082Z,5
2023-02-22T05:06:57.019Z,4.82
2023-02-22T05:07:54.077Z,4.93
2023-02-22T05:08:53.988Z,4.96
2023-02-22T05:09:53.951Z,4.92
2023-02-22T05:10:53.921Z,4.9
2023-02-22T05:11:53.902Z,4.86
2023-02-22T05:12:53.885Z,4.89
2023-02-22T05:13:53.816Z,4.87
2023-02-22T05:14:53.856Z,4.77
2023-02-22T05:15:53.894Z,4.84
2023-02-22T05:16:53.746Z,4.8
2023-02-22T05:17:53.700Z,4.82
2023-02-22T05:18:53.668Z,4.77
2023-02-22T05:19:53.677Z,4.74
2023-02-22T05:20:53.685Z,4.68
2023-02-22T05:21:53.610Z,4.75
2023-02-22T05:22:53.587Z,4.74
2023-02-22T05:23:53.490Z,4.73
2023-02-22T05:24:53.478Z,4.67
2023-02-22T05:25:53.415Z,4.71
2023-02-22T05:26:53.432Z,4.77
2023-02-22T05:27:53.353Z,4.71
2023-02-22T05:28:53.345Z,4.84
2023-02-22T05:29:53.296Z,4.78
2023-02-22T05:30:53.250Z,4.77
2023-02-22T05:31:53.568Z,4.7
2023-02-22T05:32:53.319Z,4.68
2023-02-22T05:33:53.210Z,4.67
2023-02-22T05:34:53.120Z,4.68
2023-02-22T05:35:53.080Z,4.66
2023-02-22T05:36:53.039Z,4.71
2023-02-22T05:37:53.047Z,4.67
2023-02-22T05:38:53.006Z,4.71
2023-02-22T05:39:52.941Z,4.75
2023-02-22T05:40:52.912Z,4.77
2023-02-22T05:41:52.893Z,4.75
2023-02-22T05:42:53.913Z,4.82
2023-02-22T05:43:52.812Z,4.84
2023-02-22T05:44:52.827Z,4.89
2023-02-22T05:45:52.742Z,4.93
2023-02-22T05:46:52.881Z,5
2023-02-22T05:47:52.725Z,4.94
2023-02-22T05:48:52.670Z,4.87
2023-02-22T05:49:52.621Z,4.96
2023-02-22T05:50:52.627Z,4.94
2023-02-22T05:51:52.548Z,4.97
2023-02-22T05:52:52.514Z,4.97
2023-02-22T05:53:52.477Z,5.04
2023-02-22T05:54:52.442Z,4.99
2023-02-22T05:55:52.413Z,4.99
2023-02-22T05:56:52.374Z,4.97
2023-02-22T05:57:52.343Z,5
2023-02-22T05:58:52.313Z,5.11
2023-02-22T05:59:52.270Z,5.08
2023-02-22T06:00:52.269Z,5.11
2023-02-22T06:01:52.341Z,5.11
2023-02-22T06:02:52.169Z,5.07
2023-02-22T06:03:52.193Z,5.1
2023-02-22T06:04:52.131Z,5.11
2023-02-22T06:05:52.323Z,5.07
2023-02-22T06:06:52.038Z,5.08
2023-02-22T06:07:52.014Z,5.12
2023-02-22T06:08:52.007Z,5.07
2023-02-22T06:09:51.941Z,5.02
2023-02-22T06:10:51.919Z,5.02
2023-02-22T06:11:53.638Z,5.08
2023-02-22T06:12:51.856Z,5.07
2023-02-22T06:13:51.594Z,5.11
2023-02-22T06:14:51.832Z,5.05
2023-02-22T06:15:51.745Z,5.07
2023-02-22T06:16:51.729Z,5.2
2023-02-22T06:17:51.692Z,5.02
2023-02-22T06:18:51.647Z,5.14
2023-02-22T06:19:51.633Z,5.1
2023-02-22T06:20:51.603Z,5.11
2023-02-22T06:21:51.554Z,5.05
2023-02-22T06:22:51.281Z,5.04
2023-02-22T06:23:51.468Z,5.1
2023-02-22T06:24:52.515Z,5.08
2023-02-22T06:25:51.446Z,5.05
2023-02-22T06:26:51.403Z,5.08
2023-02-22T06:27:51.382Z,5.05
2023-02-22T06:28:51.311Z,5.15
2023-02-22T06:29:51.308Z,5.11
2023-02-22T06:30:51.442Z,5.08
2023-02-22T06:31:51.770Z,5.02
2023-02-22T06:32:51.222Z,4.97
2023-02-22T06:33:51.204Z,4.94
2023-02-22T06:34:51.104Z,4.92
2023-02-22T06:35:51.098Z,4.96
2023-02-22T06:36:51.063Z,4.96
2023-02-22T06:37:51.049Z,4.9
2023-02-22T06:38:50.970Z,4.9
2023-02-22T06:39:50.944Z,4.97
2023-02-22T06:40:50.905Z,4.89
2023-02-22T06:41:50.884Z,4.92
2023-02-22T06:42:50.840Z,4.86
2023-02-22T06:43:50.812Z,4.93
2023-02-22T06:44:52.135Z,4.94
2023-02-22T06:45:50.931Z,4.94
2023-02-22T06:46:50.713Z,4.96
2023-02-22T06:47:50.672Z,4.93
2023-02-22T06:48:50.686Z,4.93
2023-02-22T06:49:50.591Z,4.86
2023-02-22T06:50:50.572Z,4.9
2023-02-22T06:51:50.567Z,4.9
2023-02-22T06:52:50.598Z,4.92
2023-02-22T06:53:50.470Z,4.87
2023-02-22T06:54:50.495Z,4.9
2023-02-22T06:55:50.533Z,4.92
2023-02-22T06:56:50.367Z,4.9
2023-02-22T06:57:50.332Z,4.82
2023-02-22T06:58:50.345Z,4.78
2023-02-22T06:59:50.273Z,4.82
2023-02-22T07:00:50.357Z,4.92
2023-02-22T07:01:50.225Z,4.9
2023-02-22T07:02:50.202Z,4.93
2023-02-22T07:03:50.193Z,5
2023-02-22T07:04:50.137Z,4.87
2023-02-22T07:05:50.064Z,4.94
2023-02-22T07:06:50.042Z,5
2023-02-22T07:07:50.028Z,4.96
2023-02-22T07:08:49.988Z,4.96
2023-02-22T07:09:50.396Z,4.94
2023-02-22T07:10:49.912Z,4.97
2023-02-22T07:11:49.856Z,4.92
2023-02-22T07:12:49.843Z,4.86
2023-02-22T07:13:49.918Z,4.92
2023-02-22T07:14:49.767Z,4.96
2023-02-22T07:15:49.725Z,4.93
2023-02-22T07:16:49.703Z,4.87
2023-02-22T07:17:49.679Z,4.84
2023-02-22T07:18:49.628Z,4.84
2023-02-22T07:19:49.603Z,4.87
2023-02-22T07:20:49.590Z,4.86
2023-02-22T07:21:49.672Z,4.87
2023-02-22T07:22:49.505Z,4.82
2023-02-22T07:23:49.486Z,4.8
2023-02-22T07:24:49.464Z,4.87
2023-02-22T07:25:49.461Z,4.82
2023-02-22T07:26:49.365Z,4.82
2023-02-22T07:27:49.348Z,4.82
2023-02-22T07:28:49.332Z,4.92
2023-02-22T07:29:49.035Z,4.86
2023-02-22T07:30:49.405Z,4.82
2023-02-22T07:31:49.224Z,4.84
2023-02-22T07:32:49.662Z,4.87
2023-02-22T07:33:49.137Z,4.86
2023-02-22T07:34:49.103Z,4.78
2023-02-22T07:35:49.090Z,4.75
2023-02-22T07:36:49.097Z,4.74
2023-02-22T07:37:48.517Z,4.87
2023-02-22T07:38:48.981Z,4.87
2023-02-22T07:39:48.963Z,4.8
2023-02-22T07:40:48.945Z,4.84
2023-02-22T07:41:48.868Z,4.84
2023-02-22T07:42:48.843Z,4.87
2023-02-22T07:43:48.816Z,4.73
2023-02-22T07:44:48.768Z,4.7
2023-02-22T07:45:49.224Z,4.7
2023-02-22T07:46:48.704Z,4.78
2023-02-22T07:47:48.680Z,4.77
2023-02-22T07:48:48.664Z,4.84
2023-02-22T07:49:48.602Z,4.9
2023-02-22T07:50:48.591Z,4.97
2023-02-22T07:51:48.531Z,4.94
2023-02-22T07:52:48.528Z,4.97
2023-02-22T07:53:48.484Z,5.02
2023-02-22T07:54:48.434Z,5
2023-02-22T07:55:48.446Z,4.97
2023-02-22T07:56:48.427Z,5.05
2023-02-22T07:57:48.346Z,5.11
2023-02-22T07:58:48.311Z,5.1
2023-02-22T07:59:48.267Z,5.07
2023-02-22T08:00:47.996Z,5.02
2023-02-22T08:01:48.228Z,5.11
2023-02-22T08:02:48.356Z,5.14
2023-02-22T08:03:48.075Z,5.02
2023-02-22T08:04:48.107Z,5.07
2023-02-22T08:05:48.123Z,5.1
2023-02-22T08:06:48.041Z,5.08
2023-02-22T08:07:47.794Z,5.12
2023-02-22T08:08:47.759Z,5.08
2023-02-22T08:09:47.944Z,5.1
2023-02-22T08:10:47.919Z,5.15
2023-02-22T08:11:47.941Z,5.12
2023-02-22T08:12:47.930Z,5.17
2023-02-22T08:13:47.827Z,5.25
2023-02-22T08:14:47.548Z,5.26
2023-02-22T08:15:48.108Z,5.3
2023-02-22T08:16:47.887Z,5.28
2023-02-22T08:17:47.684Z,5.28
2023-02-22T08:18:47.406Z,5.15
2023-02-22T08:19:47.678Z,5.3
2023-02-22T08:20:47.623Z,5.29
2023-02-22T08:21:47.312Z,5.28
2023-02-22T08:22:47.277Z,5.32
2023-02-22T08:23:47.496Z,5.32
2023-02-22T08:24:47.561Z,5.32
2023-02-22T08:25:47.435Z,5.32
2023-02-22T08:26:47.385Z,5.41
2023-02-22T08:27:47.401Z,5.43
2023-02-22T08:28:47.350Z,5.35
2023-02-22T08:29:47.434Z,5.47
2023-02-22T08:30:47.365Z,5.51
2023-02-22T08:31:47.709Z,5.56
2023-02-22T08:32:47.624Z,5.59
2023-02-22T08:33:48.382Z,5.68
2023-02-22T08:34:47.210Z,5.66
2023-02-22T08:35:47.119Z,5.71
2023-02-22T08:36:47.067Z,5.75
2023-02-22T08:37:47.379Z,5.84
2023-02-22T08:38:47.229Z,5.89
2023-02-22T08:39:46.869Z,5.97
2023-02-22T08:40:47.486Z,6.02
2023-02-22T08:41:46.962Z,5.97
2023-02-22T08:42:46.887Z,6.09
2023-02-22T08:43:46.881Z,6.19
2023-02-22T08:44:46.833Z,6.22
2023-02-22T08:45:46.998Z,6.33
2023-02-22T08:46:46.751Z,6.35
2023-02-22T08:47:46.730Z,6.51
2023-02-22T08:48:46.685Z,6.49
2023-02-22T08:49:46.405Z,6.63
2023-02-22T08:50:46.974Z,6.69
2023-02-22T08:51:46.583Z,6.72
2023-02-22T08:52:46.570Z,6.7
2023-02-22T08:53:46.511Z,6.75
2023-02-22T08:54:46.500Z,6.89
2023-02-22T08:55:46.283Z,6.87
2023-02-22T08:56:46.456Z,6.89
2023-02-22T08:57:46.394Z,6.99
2023-02-22T08:58:46.365Z,7.15
2023-02-22T08:59:46.371Z,7.2
2023-02-22T09:00:46.323Z,7.24
2023-02-22T09:01:46.423Z,7.33
2023-02-22T09:02:46.274Z,7.45
2023-02-22T09:03:46.302Z,7.5
2023-02-22T09:04:46.180Z,7.48
2023-02-22T09:05:46.391Z,7.61
2023-02-22T09:06:45.981Z,7.66
2023-02-22T09:07:46.087Z,7.67
2023-02-22T09:08:46.086Z,7.77
2023-02-22T09:09:46.088Z,7.77
2023-02-22T09:10:46.019Z,7.83
2023-02-22T09:11:45.737Z,7.93
2023-02-22T09:12:46.274Z,7.97
2023-02-22T09:13:45.890Z,8.09
2023-02-22T09:14:46.072Z,8.03
2023-02-22T09:15:45.879Z,8.15
2023-02-22T09:16:45.979Z,8.23
2023-02-22T09:17:45.818Z,8.16
2023-02-22T09:18:49.313Z,8.33
2023-02-22T09:19:45.728Z,8.42
2023-02-22T09:20:45.741Z,8.49
2023-02-22T09:21:45.408Z,8.45
2023-02-22T09:22:45.388Z,8.63
2023-02-22T09:23:45.595Z,8.69
2023-02-22T09:24:45.575Z,8.76
2023-02-22T09:25:45.676Z,8.71
2023-02-22T09:26:45.524Z,8.74
2023-02-22T09:27:45.472Z,8.79
2023-02-22T09:28:45.514Z,8.88
2023-02-22T09:29:45.640Z,8.95
2023-02-22T09:30:45.577Z,9.03
2023-02-22T09:31:45.902Z,9.06
2023-02-22T09:32:45.898Z,9.11
2023-02-22T09:33:47.329Z,9.16
2023-02-22T09:34:45.311Z,9.28
2023-02-22T09:35:45.336Z,9.25
2023-02-22T09:36:45.200Z,9.37
2023-02-22T09:37:45.208Z,9.34
2023-02-22T09:38:45.144Z,9.47
2023-02-22T09:39:45.260Z,9.4
2023-02-22T09:40:45.367Z,9.46
2023-02-22T09:41:45.051Z,9.56
2023-02-22T09:42:44.786Z,9.46
2023-02-22T09:43:45.063Z,9.58
2023-02-22T09:44:44.989Z,9.59
2023-02-22T09:45:45.225Z,9.72
2023-02-22T09:46:44.899Z,9.65
2023-02-22T09:47:45.040Z,9.79
2023-02-22T09:48:44.919Z,9.94
2023-02-22T09:49:44.850Z,10.02
2023-02-22T09:50:44.784Z,10.17
2023-02-22T09:51:44.763Z,10.22
2023-02-22T09:52:44.738Z,10.28
2023-02-22T09:53:44.695Z,10.34
2023-02-22T09:54:44.695Z,10.37
2023-02-22T09:55:44.644Z,10.42
2023-02-22T09:56:44.631Z,10.4
2023-02-22T09:57:44.592Z,10.46
2023-02-22T09:58:46.350Z,10.53
2023-02-22T09:59:44.528Z,10.59
2023-02-22T10:00:44.544Z,10.56
2023-02-22T10:01:44.256Z,10.67
2023-02-22T10:02:44.446Z,10.74
2023-02-22T10:03:44.637Z,10.75
2023-02-22T10:04:44.512Z,10.84
2023-02-22T10:05:44.762Z,10.89
2023-02-22T10:06:44.367Z,10.97
2023-02-22T10:07:44.329Z,10.99
2023-02-22T10:08:44.302Z,11.04
2023-02-22T10:09:44.248Z,11.02
2023-02-22T10:10:44.213Z,11.17
2023-02-22T10:11:44.220Z,11.18
2023-02-22T10:12:44.186Z,11.36
2023-02-22T10:13:44.151Z,11.44
2023-02-22T10:14:46.275Z,11.43
2023-02-22T10:15:44.096Z,11.59
2023-02-22T10:16:44.220Z,11.59
2023-02-22T10:17:44.025Z,11.69
2023-02-22T10:18:43.999Z,11.83
2023-02-22T10:19:43.763Z,11.88
2023-02-22T10:20:43.956Z,12.02
2023-02-22T10:21:43.907Z,12.12
2023-02-22T10:22:43.883Z,12.22
2023-02-22T10:23:43.843Z,12.29
2023-02-22T10:24:43.822Z,12.42
2023-02-22T10:25:43.804Z,12.53
2023-02-22T10:26:43.780Z,12.53
2023-02-22T10:27:43.739Z,12.68
2023-02-22T10:28:43.724Z,12.82
2023-02-22T10:29:43.460Z,12.9
2023-02-22T10:30:43.772Z,13
2023-02-22T10:31:43.867Z,13.15
2023-02-22T10:32:43.724Z,13.23
2023-02-22T10:33:43.639Z,13.35
2023-02-22T10:34:43.549Z,13.38
2023-02-22T10:35:45.992Z,13.57
2023-02-22T10:36:43.524Z,13.65
2023-02-22T10:37:43.587Z,13.72
2023-02-22T10:38:43.440Z,13.87
2023-02-22T10:39:43.551Z,13.93
2023-02-22T10:40:43.407Z,14.03
2023-02-22T10:41:43.143Z,14.05
2023-02-22T10:42:43.341Z,14.11
2023-02-22T10:43:43.317Z,14.11
2023-02-22T10:44:43.058Z,14.2
2023-02-22T10:45:43.489Z,14.17
2023-02-22T10:46:43.228Z,14.23
2023-02-22T10:47:43.228Z,14.32
2023-02-22T10:48:42.965Z,14.35
2023-02-22T10:49:43.159Z,14.37
2023-02-22T10:50:43.187Z,14.5
2023-02-22T10:51:43.148Z,14.51
2023-02-22T10:52:43.261Z,14.6
2023-02-22T10:53:43.069Z,14.68
2023-02-22T10:54:43.033Z,14.59
2023-02-22T10:55:43.228Z,14.73
2023-02-22T10:56:43.015Z,14.77
2023-02-22T10:57:42.700Z,14.86
2023-02-22T10:58:42.929Z,14.96
2023-02-22T10:59:42.982Z,14.99
2023-02-22T11:00:42.649Z,14.97
2023-02-22T11:01:43.048Z,15.04
2023-02-22T11:02:42.814Z,15
2023-02-22T11:03:42.810Z,14.94
2023-02-22T11:04:42.903Z,15.09
2023-02-22T11:05:42.740Z,15.07
2023-02-22T11:06:42.904Z,15.14
2023-02-22T11:07:42.749Z,15.14
2023-02-22T11:08:42.693Z,15.21
2023-02-22T11:09:42.651Z,15.21
2023-02-22T11:10:42.614Z,15.27
2023-02-22T11:11:42.612Z,15.31
2023-02-22T11:12:42.346Z,15.44
2023-02-22T11:13:42.578Z,15.49
2023-02-22T11:14:42.519Z,15.52
2023-02-22T11:15:42.737Z,15.64
2023-02-22T11:16:42.787Z,15.64
2023-02-22T11:17:42.444Z,15.68
2023-02-22T11:18:42.193Z,15.76
2023-02-22T11:19:42.399Z,15.77
2023-02-22T11:20:42.419Z,15.77
2023-02-22T11:21:42.343Z,15.75
2023-02-22T11:22:42.091Z,15.79
2023-02-22T11:23:44.774Z,15.8
2023-02-22T11:24:55.130Z,15.8
2023-02-22T11:25:42.268Z,15.83
2023-02-22T11:26:42.219Z,15.88
2023-02-22T11:27:42.212Z,15.95
2023-02-22T11:28:42.183Z,16.02
2023-02-22T11:29:42.221Z,16.12
2023-02-22T11:30:42.871Z,16.02
2023-02-22T11:31:42.373Z,16.29
2023-02-22T11:32:42.071Z,16.24
2023-02-22T11:33:42.061Z,16.23
2023-02-22T11:34:42.202Z,16.26
2023-02-22T11:35:42.015Z,16.24
2023-02-22T11:36:42.088Z,16.35
2023-02-22T11:37:41.765Z,16.29
2023-02-22T11:38:41.683Z,16.39
2023-02-22T11:39:42.196Z,16.41
2023-02-22T11:40:42.318Z,16.46
2023-02-22T11:41:42.035Z,16.61
2023-02-22T11:42:41.842Z,16.58
2023-02-22T11:43:41.845Z,16.6
2023-02-22T11:44:41.801Z,16.57
2023-02-22T11:46:01.982Z,16.71
2023-02-22T11:46:41.973Z,16.74
2023-02-22T11:47:41.729Z,16.69
2023-02-22T11:48:41.802Z,16.74
2023-02-22T11:49:41.443Z,16.69
2023-02-22T11:50:41.174Z,16.72
2023-02-22T11:51:41.657Z,16.71
2023-02-22T11:52:41.404Z,16.68
2023-02-22T11:53:41.605Z,16.72
2023-02-22T11:54:41.577Z,16.74
2023-02-22T11:55:48.128Z,16.72
2023-02-22T11:56:44.023Z,16.72
2023-02-22T11:57:41.502Z,16.68
2023-02-22T11:58:41.512Z,16.71
2023-02-22T11:59:41.469Z,16.93
2023-02-22T12:00:41.430Z,16.89
2023-02-22T12:01:41.403Z,16.96
2023-02-22T12:02:56.816Z,16.96
2023-02-22T12:03:41.707Z,17.02
2023-02-22T12:04:41.899Z,16.93
2023-02-22T12:05:41.308Z,16.96
2023-02-22T12:06:41.283Z,17.02
2023-02-22T12:07:41.326Z,17.02
2023-02-22T12:08:41.032Z,17.05
2023-02-22T12:09:41.013Z,17.01
2023-02-22T12:10:41.194Z,17.01
2023-02-22T12:11:41.210Z,17.02
2023-02-22T12:12:41.245Z,17.04
2023-02-22T12:13:41.117Z,17.08
2023-02-22T12:14:40.868Z,17.14
2023-02-22T12:15:41.248Z,17.15
2023-02-22T12:16:41.077Z,17.2
2023-02-22T12:17:45.740Z,17.29
2023-02-22T12:18:40.788Z,17.27
2023-02-22T12:19:41.026Z,17.41
2023-02-22T12:20:40.742Z,17.33
2023-02-22T12:21:40.953Z,17.41
2023-02-22T12:22:40.910Z,17.48
2023-02-22T12:23:41.094Z,17.45
2023-02-22T12:24:41.040Z,17.46
2023-02-22T12:25:40.847Z,17.41
2023-02-22T12:26:40.846Z,17.56
2023-02-22T12:27:40.829Z,17.6
2023-02-22T12:28:41.200Z,17.54
2023-02-22T12:29:40.757Z,17.56
2023-02-22T12:30:41.124Z,17.56
2023-02-22T12:31:41.105Z,17.49
2023-02-22T12:32:40.887Z,17.48
2023-02-22T12:33:40.792Z,17.48
2023-02-22T12:34:40.652Z,17.49
2023-02-22T12:35:40.619Z,17.48
2023-02-22T12:36:40.400Z,17.52
2023-02-22T12:37:40.575Z,17.68
2023-02-22T12:38:40.338Z,17.68
2023-02-22T12:39:56.506Z,17.71
2023-02-22T12:40:40.520Z,17.76
2023-02-22T12:41:40.502Z,17.74
2023-02-22T12:42:40.494Z,17.82
2023-02-22T12:43:40.251Z,17.89
2023-02-22T12:44:40.213Z,17.89
2023-02-22T12:45:40.396Z,17.79
2023-02-22T12:46:40.652Z,17.78
2023-02-22T12:47:40.359Z,17.74
2023-02-22T12:48:40.327Z,17.79
2023-02-22T12:49:40.383Z,17.74
2023-02-22T12:50:40.078Z,17.74
2023-02-22T12:51:40.288Z,17.78
2023-02-22T12:52:40.012Z,17.87
2023-02-22T12:53:40.234Z,17.89
2023-02-22T12:54:40.195Z,17.94
2023-02-22T12:55:40.193Z,17.94
2023-02-22T12:56:40.137Z,17.98
2023-02-22T12:57:40.146Z,18.07
2023-02-22T12:58:40.109Z,18.15
2023-02-22T12:59:40.108Z,18.1
2023-02-22T13:00:40.140Z,18.16
2023-02-22T13:01:40.178Z,18.08
2023-02-22T13:02:40.015Z,17.95
2023-02-22T13:03:39.994Z,17.98
2023-02-22T13:04:39.959Z,17.92
2023-02-22T13:05:40.066Z,17.92
2023-02-22T13:06:39.929Z,18.01
2023-02-22T13:07:39.911Z,17.95
2023-02-22T13:08:39.876Z,17.89
2023-02-22T13:09:39.853Z,17.85
2023-02-22T13:10:39.852Z,17.9
2023-02-22T13:11:39.865Z,17.98
2023-02-22T13:12:39.813Z,17.97
2023-02-22T13:13:39.764Z,17.98
2023-02-22T13:14:39.740Z,17.95